Time;durP1;ratioP1;P1;durP2;ratioP2;P2;SDS_P1;SDS_P2;PMS_P1;PMS_P2;Temp;Humidity;BMP_temperature;BMP_pressure;BME280_temperature;BME280_humidity;BME280_pressure;Samples;Min_cycle;Max_cycle;Signal;HPM_P1;HPM_P2
2022/02/11 00:07:25;;;;;;;11.95;3.10;;;5.00;88.60;;;;;;6153045;22;95461;-74
2022/02/11 00:09:53;;;;;;;10.40;3.13;;;5.00;88.40;;;;;;6126472;22;117016;-73
2022/02/11 00:12:21;;;;;;;11.73;3.22;;;5.00;88.50;;;;;;6154791;22;92285;-74
2022/02/11 00:15:02;;;;;;;10.70;3.20;;;4.90;88.60;;;;;;6154800;22;92670;-73
2022/02/11 00:17:30;;;;;;;12.18;3.42;;;4.90;88.60;;;;;;6129471;22;95617;-70
2022/02/11 00:19:57;;;;;;;7.50;3.03;;;4.90;88.60;;;;;;6128960;22;95517;-70
2022/02/11 00:22:24;;;;;;;7.95;3.25;;;4.90;88.70;;;;;;6156102;22;92393;-70
2022/02/11 00:24:53;;;;;;;10.40;3.40;;;4.80;88.80;;;;;;6104837;22;92614;-70
2022/02/11 00:30:46;;;;;;;9.95;3.38;;;4.80;88.90;;;;;;6128795;22;95458;-70
2022/02/11 00:33:04;;;;;;;14.32;3.50;;;4.80;88.80;;;;;;6124670;22;95475;-70
2022/02/11 00:38:03;;;;;;;7.30;2.85;;;4.80;88.80;;;;;;6155844;22;93198;-70
2022/02/11 01:04:36;;;;;;;6.47;2.72;;;5.50;87.80;;;;;;6128834;22;92433;-70
2022/02/11 01:07:03;;;;;;;10.57;2.83;;;5.60;88.00;;;;;;6104376;22;92396;-70
2022/02/11 01:09:32;;;;;;;10.35;3.22;;;5.60;87.00;;;;;;6129430;22;93143;-70
2022/02/11 01:12:02;;;;;;;7.82;3.03;;;5.70;87.20;;;;;;6129036;22;92521;-70
2022/02/11 01:14:35;;;;;;;7.40;2.63;;;5.70;87.00;;;;;;6155981;22;92283;-70
2022/02/11 01:27:30;;;;;;;11.07;2.80;;;5.80;85.90;;;;;;6155267;22;92417;-70
2022/02/11 01:30:23;;;;;;;7.32;2.55;;;5.80;85.70;;;;;;6155609;22;92785;-70
2022/02/11 01:46:32;;;;;;;10.65;2.58;;;5.40;86.20;;;;;;6128522;22;92382;-70
2022/02/11 01:51:38;;;;;;;7.82;2.83;;;5.30;86.90;;;;;;6154145;22;95586;-70
2022/02/11 01:54:18;;;;;;;8.45;2.78;;;5.20;86.80;;;;;;6154680;22;95236;-70
2022/02/11 01:56:58;;;;;;;10.90;2.35;;;5.20;86.90;;;;;;6128700;22;93118;-70
2022/02/11 02:00:05;;;;;;;7.18;2.75;;;5.20;86.90;;;;;;6155724;22;92375;-70
2022/02/11 02:03:15;;;;;;;10.57;2.80;;;5.20;87.30;;;;;;6135833;22;93047;-70
2022/02/11 02:23:40;;;;;;;8.43;3.00;;;5.70;87.60;;;;;;6128835;22;93073;-70
2022/02/11 02:50:36;;;;;;;11.20;3.13;;;6.10;88.60;;;;;;6155663;22;92812;-70
2022/02/11 02:58:45;;;;;;;8.90;2.50;;;6.10;89.40;;;;;;6155238;22;93084;-70
2022/02/11 03:34:37;;;;;;;9.20;2.35;;;6.40;90.20;;;;;;6155343;22;92901;-70
2022/02/11 04:56:06;;;;;;;8.75;1.88;;;6.90;88.50;;;;;;6155772;22;93195;-71
2022/02/11 05:01:18;;;;;;;9.95;1.65;;;7.00;88.30;;;;;;6153815;22;95301;-71
2022/02/11 05:03:46;;;;;;;9.98;1.83;;;6.90;88.90;;;;;;6128923;22;92541;-71
2022/02/11 05:06:13;;;;;;;9.80;1.98;;;7.00;88.10;;;;;;6128977;22;93360;-71
2022/02/11 05:08:40;;;;;;;11.60;1.88;;;6.90;87.60;;;;;;6129490;22;93119;-71
2022/02/11 05:11:09;;;;;;;11.65;2.25;;;6.90;88.10;;;;;;6156228;22;92421;-71
2022/02/11 05:13:37;;;;;;;10.43;2.03;;;6.90;88.00;;;;;;6156068;22;92776;-72
2022/02/11 05:16:05;;;;;;;10.93;1.92;;;6.90;87.90;;;;;;6129074;22;97896;-71
2022/02/11 05:18:32;;;;;;;9.18;1.42;;;6.90;88.50;;;;;;6104578;22;95725;-71
2022/02/11 05:20:59;;;;;;;9.88;1.90;;;6.80;88.20;;;;;;6128985;22;92497;-71
2022/02/11 05:23:26;;;;;;;9.63;2.25;;;6.90;88.80;;;;;;6129373;22;92442;-71
2022/02/11 05:25:53;;;;;;;13.05;2.10;;;6.80;88.30;;;;;;6127303;22;97976;-72
2022/02/11 05:28:20;;;;;;;8.82;1.70;;;6.80;89.70;;;;;;6155253;22;95936;-71
2022/02/11 05:30:47;;;;;;;8.63;1.80;;;6.80;89.80;;;;;;6129276;22;93405;-71
2022/02/11 05:33:14;;;;;;;6.97;1.35;;;6.70;90.20;;;;;;6128556;22;92479;-71
2022/02/11 05:35:41;;;;;;;11.85;1.70;;;6.70;90.40;;;;;;6155574;22;93065;-71
2022/02/11 05:38:10;;;;;;;9.20;1.85;;;6.70;90.80;;;;;;6155601;22;92318;-71
2022/02/11 05:40:37;;;;;;;11.02;2.63;;;6.70;90.80;;;;;;6155535;22;92434;-71
2022/02/11 05:43:04;;;;;;;9.80;1.77;;;6.70;90.40;;;;;;6129810;22;91756;-71
2022/02/11 05:45:31;;;;;;;10.98;1.80;;;6.70;89.80;;;;;;6128250;22;99009;-71
2022/02/11 05:47:58;;;;;;;10.32;1.85;;;6.70;90.20;;;;;;6129009;22;93006;-72
2022/02/11 05:50:25;;;;;;;9.30;2.20;;;6.80;90.00;;;;;;6127663;22;94932;-71
2022/02/11 05:52:56;;;;;;;12.32;2.67;;;6.80;89.90;;;;;;6156082;22;92384;-72
2022/02/11 05:55:23;;;;;;;11.93;2.85;;;6.80;90.10;;;;;;6149807;22;96780;-71
2022/02/11 05:57:50;;;;;;;13.75;1.80;;;6.80;89.90;;;;;;6155559;22;92658;-71
2022/02/11 06:00:17;;;;;;;14.98;2.33;;;6.80;89.00;;;;;;6153936;22;92422;-71
2022/02/11 06:02:44;;;;;;;7.13;2.03;;;6.80;89.10;;;;;;6154087;22;92454;-74
2022/02/11 06:05:16;;;;;;;10.73;2.55;;;6.70;89.00;;;;;;6152994;22;95666;-74
2022/02/11 06:07:43;;;;;;;9.35;2.03;;;6.70;89.80;;;;;;6154336;22;95631;-75
2022/02/11 06:10:11;;;;;;;9.70;1.63;;;6.70;90.00;;;;;;6154162;22;92419;-74
2022/02/11 06:12:38;;;;;;;16.40;1.95;;;6.60;89.80;;;;;;6128771;22;92909;-75
2022/02/11 06:15:07;;;;;;;14.25;2.13;;;6.70;88.90;;;;;;6152532;22;95572;-75
2022/02/11 06:17:34;;;;;;;11.25;2.05;;;6.70;90.30;;;;;;6154825;22;100597;-75
2022/02/11 06:20:02;;;;;;;7.50;2.33;;;6.70;89.90;;;;;;6128977;22;92344;-75
2022/02/11 06:22:29;;;;;;;16.15;2.22;;;6.60;87.10;;;;;;6155720;22;92400;-75
2022/02/11 06:24:57;;;;;;;11.57;2.70;;;6.60;88.00;;;;;;6155414;22;93078;-75
2022/02/11 06:27:25;;;;;;;12.15;2.53;;;6.60;87.90;;;;;;6155120;22;93002;-75
2022/02/11 06:29:53;;;;;;;7.13;2.05;;;6.60;86.60;;;;;;6154305;22;92413;-75
2022/02/11 06:32:20;;;;;;;9.15;2.47;;;6.50;85.90;;;;;;6155641;22;101296;-75
2022/02/11 06:34:47;;;;;;;12.07;2.78;;;6.50;86.60;;;;;;6155515;22;93011;-75
2022/02/11 06:37:14;;;;;;;8.30;2.15;;;6.40;86.60;;;;;;6155493;22;92847;-75
2022/02/11 06:39:41;;;;;;;8.40;1.98;;;6.50;86.10;;;;;;6152414;22;94784;-75
2022/02/11 06:42:08;;;;;;;8.70;2.30;;;6.40;86.60;;;;;;6153900;22;92475;-75
2022/02/11 06:44:35;;;;;;;10.63;2.53;;;6.40;86.60;;;;;;6155051;22;93074;-75
2022/02/11 06:47:02;;;;;;;14.10;2.80;;;6.40;86.30;;;;;;6155374;22;92853;-75
2022/02/11 06:49:31;;;;;;;7.72;1.90;;;6.40;87.10;;;;;;6128970;22;98517;-75
2022/02/11 06:51:58;;;;;;;11.55;2.22;;;6.40;88.00;;;;;;6154047;22;92411;-75
2022/02/11 06:54:25;;;;;;;10.63;1.92;;;6.40;89.20;;;;;;6152924;22;93175;-71
2022/02/11 06:56:52;;;;;;;6.97;1.88;;;6.40;90.20;;;;;;6155701;22;93231;-71
2022/02/11 06:59:19;;;;;;;11.65;2.05;;;6.30;90.00;;;;;;6153971;22;92400;-71
2022/02/11 07:01:46;;;;;;;16.25;2.42;;;6.30;90.00;;;;;;6155097;22;92398;-71
2022/02/11 07:04:16;;;;;;;9.50;2.17;;;6.30;90.80;;;;;;6152142;22;95578;-71
2022/02/11 07:06:43;;;;;;;10.68;2.05;;;6.30;90.90;;;;;;6153151;22;94207;-71
2022/02/11 07:09:10;;;;;;;17.13;2.83;;;6.30;90.80;;;;;;6153970;22;92391;-71
2022/02/11 07:11:37;;;;;;;14.73;3.10;;;6.30;90.80;;;;;;6153469;22;92875;-71
2022/02/11 07:14:04;;;;;;;11.40;2.78;;;6.30;90.10;;;;;;6153250;22;94306;-71
2022/02/11 07:16:31;;;;;;;9.57;2.75;;;6.30;89.80;;;;;;6152877;22;95543;-71
2022/02/11 07:18:59;;;;;;;11.05;2.47;;;6.30;88.80;;;;;;6155278;22;92418;-71
2022/02/11 07:21:25;;;;;;;14.98;3.15;;;6.30;89.50;;;;;;6154025;22;92147;-71
2022/02/11 07:23:52;;;;;;;12.57;2.25;;;6.20;90.00;;;;;;6153434;22;93186;-71
2022/02/11 07:26:19;;;;;;;9.35;2.45;;;6.20;89.70;;;;;;6155816;22;92960;-71
2022/02/11 07:28:46;;;;;;;10.77;2.22;;;6.10;89.10;;;;;;6154768;22;94801;-71
2022/02/11 07:31:13;;;;;;;9.82;2.50;;;6.20;89.20;;;;;;6156470;22;92644;-71
2022/02/11 07:33:40;;;;;;;10.65;2.42;;;6.20;89.50;;;;;;6153962;22;95816;-71
2022/02/11 07:36:09;;;;;;;11.63;2.63;;;6.10;88.60;;;;;;6153687;22;109376;-71
2022/02/11 07:38:36;;;;;;;9.38;2.40;;;6.10;88.90;;;;;;6156411;22;92890;-71
2022/02/11 07:41:03;;;;;;;9.35;1.90;;;6.10;88.70;;;;;;6154813;22;92482;-71
2022/02/11 07:43:30;;;;;;;7.47;1.60;;;6.10;87.60;;;;;;6156185;22;93190;-71
2022/02/11 07:46:08;;;;;;;5.53;1.33;;;6.10;88.40;;;;;;6155270;22;93018;-71
2022/02/11 07:48:36;;;;;;;8.00;1.63;;;6.10;86.40;;;;;;6130247;22;92512;-75
2022/02/11 07:51:03;;;;;;;7.95;2.03;;;6.10;85.20;;;;;;6154835;22;92398;-75
2022/02/11 07:53:34;;;;;;;8.68;1.80;;;6.10;88.00;;;;;;6154415;22;95541;-75
2022/02/11 07:56:03;;;;;;;8.30;2.20;;;6.00;89.00;;;;;;6129259;22;98258;-75
2022/02/11 07:58:30;;;;;;;6.25;1.70;;;6.10;88.60;;;;;;6129160;22;92502;-75
2022/02/11 08:00:57;;;;;;;8.23;2.40;;;6.10;87.10;;;;;;6155845;22;92341;-75
2022/02/11 08:03:25;;;;;;;7.90;1.75;;;6.10;87.50;;;;;;6155953;22;93208;-75
2022/02/11 08:05:54;;;;;;;4.95;1.70;;;6.20;87.20;;;;;;6155508;22;93068;-75
2022/02/11 08:08:26;;;;;;;5.70;1.73;;;6.10;86.60;;;;;;6156334;22;92305;-75
2022/02/11 08:10:55;;;;;;;5.95;1.85;;;6.10;85.50;;;;;;6129748;22;91851;-75
2022/02/11 08:13:22;;;;;;;7.10;1.73;;;6.10;85.50;;;;;;6104507;22;95632;-75
2022/02/11 08:15:49;;;;;;;8.77;1.77;;;6.10;86.60;;;;;;6128668;22;95750;-75
2022/02/11 08:18:16;;;;;;;5.82;1.58;;;6.10;86.70;;;;;;6154480;22;94871;-75
2022/02/11 08:21:03;;;;;;;5.72;1.15;;;6.00;86.30;;;;;;6134060;22;92529;-75
2022/02/11 08:23:30;;;;;;;5.45;2.00;;;6.10;86.30;;;;;;6129115;22;95616;-75
2022/02/11 08:25:57;;;;;;;9.13;1.90;;;6.20;86.10;;;;;;6104128;22;95430;-75
2022/02/11 08:28:24;;;;;;;5.97;1.63;;;6.10;87.70;;;;;;6129893;22;92337;-75
2022/02/11 08:30:51;;;;;;;6.80;1.48;;;6.00;90.00;;;;;;6129017;22;92789;-75
2022/02/11 08:33:23;;;;;;;3.70;1.48;;;5.90;90.70;;;;;;6155853;22;93187;-75
2022/02/11 08:35:52;;;;;;;6.75;1.52;;;5.90;91.40;;;;;;6130362;22;91861;-75
2022/02/11 08:38:20;;;;;;;8.60;1.73;;;5.80;91.80;;;;;;6129237;22;93014;-75
2022/02/11 08:40:48;;;;;;;4.55;1.48;;;5.70;92.30;;;;;;6129000;22;92449;-75
2022/02/11 08:43:17;;;;;;;7.05;1.90;;;5.70;93.00;;;;;;6154259;22;95580;-75
2022/02/11 08:45:44;;;;;;;5.28;1.75;;;5.60;92.10;;;;;;6155309;22;95418;-75
2022/02/11 08:48:12;;;;;;;4.10;1.45;;;5.60;92.40;;;;;;6156081;22;92302;-75
2022/02/11 08:50:41;;;;;;;5.00;1.35;;;5.50;92.50;;;;;;6129386;22;92453;-75
2022/02/11 08:53:30;;;;;;;4.88;1.65;;;5.60;92.50;;;;;;6128847;22;95882;-75
2022/02/11 08:55:57;;;;;;;4.68;1.52;;;5.70;91.80;;;;;;6155684;22;92310;-75
2022/02/11 08:58:24;;;;;;;9.32;1.95;;;5.70;91.10;;;;;;6129744;22;92319;-75
2022/02/11 09:00:51;;;;;;;7.28;2.05;;;5.80;91.20;;;;;;6129280;22;99895;-75
2022/02/11 09:03:23;;;;;;;7.30;2.40;;;5.70;91.20;;;;;;6155656;22;92636;-75
2022/02/11 09:05:50;;;;;;;9.35;2.75;;;5.80;98.40;;;;;;6128206;22;95561;-75
2022/02/11 09:08:17;;;;;;;8.55;2.10;;;5.80;97.90;;;;;;6154490;22;94880;-75
2022/02/11 09:10:48;;;;;;;5.38;1.70;;;5.70;98.30;;;;;;6128817;22;92857;-75
2022/02/11 09:13:15;;;;;;;5.93;1.80;;;5.70;98.30;;;;;;6129462;22;93209;-75
2022/02/11 09:15:43;;;;;;;11.57;2.50;;;5.80;95.90;;;;;;6128668;22;95583;-75
2022/02/11 09:18:11;;;;;;;6.43;1.65;;;5.80;94.70;;;;;;6129800;22;92454;-75
2022/02/11 09:20:38;;;;;;;11.18;2.55;;;5.90;93.70;;;;;;6128893;22;92525;-75
2022/02/11 09:23:05;;;;;;;6.85;1.63;;;5.80;92.00;;;;;;6155495;22;92373;-75
2022/02/11 09:25:34;;;;;;;10.85;1.50;;;5.80;90.90;;;;;;6128642;22;105232;-75
2022/02/11 09:28:01;;;;;;;7.63;2.38;;;5.90;91.20;;;;;;6128588;22;92328;-75
2022/02/11 09:30:28;;;;;;;8.82;1.58;;;5.90;91.00;;;;;;6104897;22;92408;-75
2022/02/11 09:32:57;;;;;;;7.57;2.03;;;5.90;90.30;;;;;;6126689;22;98258;-75
2022/02/11 09:35:24;;;;;;;7.63;1.70;;;6.00;90.50;;;;;;6129098;22;95321;-75
2022/02/11 09:37:54;;;;;;;4.45;1.60;;;6.00;89.90;;;;;;6129107;22;92410;-75
2022/02/11 09:40:22;;;;;;;7.60;1.77;;;6.00;89.70;;;;;;6155838;22;92435;-75
2022/02/11 09:42:53;;;;;;;5.97;1.67;;;6.10;89.40;;;;;;6127752;22;106106;-75
2022/02/11 09:45:21;;;;;;;5.05;1.70;;;6.20;88.00;;;;;;6155649;22;92684;-75
2022/02/11 09:47:50;;;;;;;10.13;1.60;;;6.20;87.40;;;;;;6155024;22;92390;-75
2022/02/11 09:50:22;;;;;;;7.95;2.65;;;6.10;90.90;;;;;;6129645;22;91762;-75
2022/02/11 09:52:55;;;;;;;7.82;1.65;;;5.90;91.70;;;;;;6155405;22;93158;-75
2022/02/11 09:55:33;;;;;;;12.50;1.98;;;5.70;92.20;;;;;;6146889;22;95611;-75
2022/02/11 09:58:08;;;;;;;8.52;1.85;;;5.50;92.60;;;;;;6154026;22;94767;-75
2022/02/11 10:00:38;;;;;;;7.60;2.00;;;5.50;93.00;;;;;;6153724;22;92502;-75
2022/02/11 10:03:16;;;;;;;13.95;3.10;;;5.40;91.80;;;;;;6153322;22;95734;-75
2022/02/11 10:05:53;;;;;;;9.52;1.88;;;5.40;92.40;;;;;;6155392;22;92402;-75
2022/02/11 10:08:27;;;;;;;6.03;2.30;;;5.50;92.40;;;;;;6153882;22;92494;-75
2022/02/11 10:10:58;;;;;;;6.03;1.52;;;5.50;92.00;;;;;;6155446;22;92381;-75
2022/02/11 10:13:30;;;;;;;10.15;2.15;;;5.60;92.20;;;;;;6155560;22;92891;-75
2022/02/11 10:16:10;;;;;;;9.27;2.08;;;5.70;91.50;;;;;;6154065;22;95513;-75
2022/02/11 10:18:48;;;;;;;8.70;2.67;;;5.80;91.50;;;;;;6154252;22;93003;-75
2022/02/11 10:21:20;;;;;;;8.32;2.22;;;5.80;91.00;;;;;;6128919;22;92499;-75
2022/02/11 10:23:51;;;;;;;6.65;2.47;;;5.70;91.50;;;;;;6154003;22;95512;-75
2022/02/11 10:26:19;;;;;;;8.50;2.17;;;5.70;91.30;;;;;;6155491;22;94509;-75
2022/02/11 10:28:57;;;;;;;4.65;1.92;;;6.00;90.60;;;;;;6155448;22;93434;-75
2022/02/11 10:31:31;;;;;;;12.38;2.95;;;6.10;89.40;;;;;;6155751;22;92803;-75
2022/02/11 10:34:14;;;;;;;10.05;2.63;;;6.30;88.50;;;;;;6153517;22;93310;-75
2022/02/11 10:36:49;;;;;;;11.48;2.47;;;6.40;87.80;;;;;;6155543;22;93026;-75
2022/02/11 10:39:21;;;;;;;12.85;2.33;;;6.40;87.20;;;;;;6154145;22;92498;-75
2022/02/11 10:41:57;;;;;;;8.93;2.10;;;6.50;89.40;;;;;;6154269;22;91778;-75
2022/02/11 10:44:34;;;;;;;7.47;2.42;;;6.70;88.10;;;;;;6128775;22;96095;-75
2022/02/11 10:47:07;;;;;;;8.50;1.92;;;6.80;88.20;;;;;;6158102;22;92953;-74
2022/02/11 10:49:41;;;;;;;11.25;2.50;;;6.90;87.40;;;;;;6154254;22;94690;-74
2022/02/11 10:52:23;;;;;;;10.32;2.05;;;7.00;87.80;;;;;;6155320;22;92282;-75
2022/02/11 10:54:53;;;;;;;9.38;2.30;;;7.10;85.60;;;;;;6154581;22;92479;-75
2022/02/11 10:57:26;;;;;;;11.48;2.40;;;7.20;86.00;;;;;;6154834;22;92832;-75
2022/02/11 10:59:54;;;;;;;9.60;2.75;;;7.20;85.40;;;;;;6104430;22;92905;-75
2022/02/11 11:02:23;;;;;;;7.13;2.33;;;7.30;81.70;;;;;;6155533;22;92452;-75
2022/02/11 11:04:52;;;;;;;10.23;2.42;;;7.30;80.80;;;;;;6128639;22;98895;-75
2022/02/11 11:07:27;;;;;;;6.82;1.90;;;7.20;79.80;;;;;;6103525;22;94042;-75
2022/02/11 11:10:16;;;;;;;7.80;1.90;;;7.20;79.90;;;;;;6132732;22;92500;-75
2022/02/11 11:12:54;;;;;;;8.27;1.75;;;7.10;80.90;;;;;;6155069;22;96551;-75
2022/02/11 11:15:23;;;;;;;13.48;2.05;;;7.10;80.90;;;;;;6153276;22;95653;-76
2022/02/11 11:17:52;;;;;;;10.93;1.80;;;7.10;81.30;;;;;;6127953;22;108510;-75
2022/02/11 11:20:21;;;;;;;9.23;1.73;;;7.20;80.10;;;;;;6103777;22;92532;-74
2022/02/11 11:23:02;;;;;;;5.40;1.40;;;7.20;79.70;;;;;;6128970;22;92430;-75
2022/02/11 11:26:03;;;;;;;6.85;1.58;;;7.30;79.90;;;;;;6127940;22;95765;-75
2022/02/11 11:28:43;;;;;;;5.57;1.55;;;7.30;78.90;;;;;;6128680;22;92856;-75
2022/02/11 11:31:28;;;;;;;9.50;2.95;;;7.40;77.90;;;;;;6154839;22;92381;-75
2022/02/11 11:34:16;;;;;;;15.07;2.35;;;7.50;77.70;;;;;;6155706;22;91912;-75
2022/02/11 11:36:48;;;;;;;9.80;2.45;;;7.60;77.70;;;;;;6128459;22;93129;-75
2022/02/11 11:39:18;;;;;;;7.68;2.75;;;7.60;73.00;;;;;;6154602;22;92840;-74
2022/02/11 11:42:03;;;;;;;7.35;1.75;;;7.70;72.20;;;;;;6127773;22;94860;-73
2022/02/11 11:44:41;;;;;;;5.60;1.50;;;7.80;70.60;;;;;;6128328;22;92380;-73
2022/02/11 11:47:13;;;;;;;6.60;1.55;;;7.90;70.40;;;;;;6154482;22;93095;-73
2022/02/11 11:49:46;;;;;;;6.03;1.67;;;7.90;70.00;;;;;;6127894;22;95481;-75
2022/02/11 11:52:13;;;;;;;16.45;1.73;;;8.00;70.00;;;;;;6154730;22;92287;-75
2022/02/11 11:54:40;;;;;;;5.90;1.90;;;8.00;69.70;;;;;;6154572;22;92744;-75
2022/02/11 11:57:17;;;;;;;5.65;1.40;;;8.00;68.80;;;;;;6127499;22;96521;-75
2022/02/11 11:59:55;;;;;;;7.72;2.30;;;8.00;67.30;;;;;;6154960;22;92788;-75
2022/02/11 12:02:27;;;;;;;6.10;1.45;;;8.00;66.10;;;;;;6154502;22;92677;-75
2022/02/11 12:04:56;;;;;;;11.70;3.13;;;7.90;67.10;;;;;;6154861;22;92358;-75
2022/02/11 12:07:24;;;;;;;7.38;2.15;;;7.90;69.30;;;;;;6125976;22;94868;-73
2022/02/11 12:09:53;;;;;;;8.95;1.77;;;8.00;68.30;;;;;;6127498;22;96541;-73
2022/02/11 12:12:22;;;;;;;5.93;2.35;;;8.10;68.10;;;;;;6155788;22;93101;-73
2022/02/11 12:14:56;;;;;;;7.35;1.77;;;8.10;68.70;;;;;;6156168;22;92383;-73
2022/02/11 12:17:25;;;;;;;9.40;1.70;;;8.10;67.00;;;;;;6155632;22;93168;-72
2022/02/11 12:19:53;;;;;;;7.22;2.33;;;8.10;69.30;;;;;;6105010;22;92878;-73
2022/02/11 12:22:22;;;;;;;8.93;1.73;;;8.10;69.50;;;;;;6156160;22;92459;-73
2022/02/11 12:27:39;;;;;;;7.53;1.92;;;8.10;68.40;;;;;;6133425;22;93032;-73
2022/02/11 12:30:18;;;;;;;8.00;2.30;;;8.20;66.50;;;;;;6129358;22;95631;-73
2022/02/11 12:32:53;;;;;;;5.10;1.35;;;8.20;67.70;;;;;;6154689;22;94701;-73
2022/02/11 12:35:28;;;;;;;4.47;1.75;;;8.20;67.40;;;;;;6129568;22;92388;-73
2022/02/11 12:37:59;;;;;;;5.80;1.70;;;8.10;66.30;;;;;;6155910;22;92275;-73
2022/02/11 12:40:36;;;;;;;7.40;1.52;;;8.20;66.30;;;;;;6129347;22;93030;-74
2022/02/11 12:43:08;;;;;;;7.25;1.50;;;8.30;68.90;;;;;;6129522;22;92408;-73
2022/02/11 12:45:41;;;;;;;9.65;2.22;;;8.30;67.80;;;;;;6156077;22;92367;-73
2022/02/11 12:48:13;;;;;;;11.83;1.90;;;8.30;64.50;;;;;;6155871;22;93339;-73
2022/02/11 12:50:53;;;;;;;8.05;1.73;;;8.30;64.20;;;;;;6156399;22;92923;-73
2022/02/11 12:53:25;;;;;;;6.30;1.40;;;8.30;63.30;;;;;;6129058;22;92544;-73
2022/02/11 12:55:52;;;;;;;6.90;1.77;;;8.30;62.40;;;;;;6150846;22;92355;-73
2022/02/11 12:58:20;;;;;;;10.40;2.15;;;8.10;62.80;;;;;;6152291;22;98300;-73
2022/02/11 13:00:50;;;;;;;4.70;1.42;;;8.20;64.40;;;;;;6153803;22;98291;-73
2022/02/11 13:03:19;;;;;;;7.45;1.40;;;8.10;65.10;;;;;;6155686;22;92439;-73
2022/02/11 13:05:52;;;;;;;8.07;1.35;;;8.10;64.80;;;;;;6129769;22;92488;-73
2022/02/11 13:08:28;;;;;;;5.50;1.60;;;8.10;64.80;;;;;;6153323;22;95829;-73
2022/02/11 13:10:56;;;;;;;10.60;2.10;;;8.00;65.50;;;;;;6155744;22;92949;-73
2022/02/11 13:13:23;;;;;;;8.35;1.73;;;8.00;67.00;;;;;;6155773;22;92395;-73
2022/02/11 13:15:54;;;;;;;4.88;1.25;;;8.00;65.90;;;;;;6128946;22;106572;-73
2022/02/11 13:18:23;;;;;;;6.45;1.73;;;8.10;66.70;;;;;;6153916;22;93428;-73
2022/02/11 13:21:12;;;;;;;4.88;1.63;;;8.10;66.00;;;;;;6155485;22;95261;-73
2022/02/11 13:23:42;;;;;;;10.55;2.25;;;8.10;65.70;;;;;;6153910;22;94777;-73
2022/02/11 13:26:14;;;;;;;6.70;2.45;;;8.20;64.80;;;;;;6153874;22;92815;-73
2022/02/11 13:28:49;;;;;;;4.53;1.50;;;8.10;64.60;;;;;;6153967;22;92478;-73
2022/02/11 13:31:18;;;;;;;6.82;1.90;;;8.20;64.30;;;;;;6155374;22;92721;-73
2022/02/11 13:33:49;;;;;;;13.30;1.98;;;8.20;65.60;;;;;;6155828;22;92302;-73
2022/02/11 13:36:25;;;;;;;5.90;2.80;;;8.20;64.50;;;;;;6156046;22;93312;-73
2022/02/11 13:38:52;;;;;;;6.47;1.40;;;8.30;63.60;;;;;;6153765;22;95782;-73
2022/02/11 13:41:35;;;;;;;7.28;1.40;;;8.30;63.30;;;;;;6153850;22;103502;-73
2022/02/11 13:44:07;;;;;;;7.93;1.73;;;8.40;64.00;;;;;;6154348;22;92546;-73
2022/02/11 13:46:55;;;;;;;8.40;1.80;;;8.40;64.60;;;;;;6154588;22;92344;-73
2022/02/11 13:49:23;;;;;;;5.60;1.30;;;8.50;63.10;;;;;;6153653;22;95467;-73
2022/02/11 13:54:57;;;;;;;7.10;1.48;;;8.60;63.20;;;;;;6155762;22;92533;-73
2022/02/11 13:57:24;;;;;;;7.35;1.50;;;8.70;62.60;;;;;;6128998;22;92452;-73
2022/02/11 13:59:52;;;;;;;6.85;1.60;;;8.60;62.30;;;;;;6104190;22;95817;-73
2022/02/11 14:02:21;;;;;;;5.53;1.23;;;8.60;61.80;;;;;;6155303;22;93288;-73
2022/02/11 14:05:02;;;;;;;4.03;1.30;;;8.60;62.20;;;;;;6129471;22;92509;-73
2022/02/11 14:07:30;;;;;;;6.53;1.50;;;8.50;63.50;;;;;;6129415;22;91610;-73
2022/02/11 14:09:56;;;;;;;8.57;1.85;;;8.50;63.40;;;;;;6155388;22;93111;-73
2022/02/11 14:12:23;;;;;;;9.82;2.20;;;8.50;64.90;;;;;;6128345;22;95511;-73
2022/02/11 14:14:54;;;;;;;8.88;1.85;;;8.40;67.80;;;;;;6154338;22;94758;-73
2022/02/11 14:17:21;;;;;;;7.70;2.00;;;8.40;69.10;;;;;;6155774;22;93317;-73
2022/02/11 14:19:49;;;;;;;14.45;1.92;;;8.30;69.50;;;;;;6127761;22;111035;-73
2022/02/11 14:22:17;;;;;;;8.93;1.55;;;8.30;69.40;;;;;;6103603;22;95763;-73
2022/02/11 14:24:44;;;;;;;6.90;1.65;;;8.20;68.40;;;;;;6155379;22;92291;-73
2022/02/11 14:27:11;;;;;;;6.32;1.60;;;8.10;65.30;;;;;;6155514;22;92334;-73
2022/02/11 14:29:38;;;;;;;6.75;1.52;;;8.10;64.30;;;;;;6128529;22;95696;-73
2022/02/11 14:32:06;;;;;;;4.80;1.60;;;8.00;64.20;;;;;;6155824;22;92877;-73
2022/02/11 14:34:33;;;;;;;11.52;2.13;;;8.00;63.00;;;;;;6128085;22;92366;-73
2022/02/11 14:37:01;;;;;;;7.60;1.40;;;7.90;64.40;;;;;;6129188;22;92845;-73
2022/02/11 14:39:29;;;;;;;7.25;1.95;;;7.90;64.80;;;;;;6153609;22;95490;-73
2022/02/11 14:42:00;;;;;;;6.72;1.50;;;7.90;62.80;;;;;;6128319;22;96394;-73
2022/02/11 14:44:29;;;;;;;8.32;1.73;;;7.80;62.90;;;;;;6155321;22;92445;-73
2022/02/11 14:47:04;;;;;;;7.78;2.05;;;7.70;64.80;;;;;;6155426;22;92454;-73
2022/02/11 14:49:31;;;;;;;2.83;1.40;;;7.70;65.00;;;;;;6155333;22;93191;-73
2022/02/11 14:52:04;;;;;;;9.55;1.45;;;7.60;64.80;;;;;;6155206;22;92859;-73
2022/02/11 14:54:32;;;;;;;8.63;1.43;;;7.60;64.20;;;;;;6133225;22;92832;-73
2022/02/11 14:56:59;;;;;;;5.00;1.75;;;7.50;64.60;;;;;;6155860;22;91733;-73
2022/02/11 14:59:27;;;;;;;12.63;2.08;;;7.60;65.70;;;;;;6153671;22;93021;-73
2022/02/11 15:01:55;;;;;;;9.80;1.50;;;7.50;66.80;;;;;;6153793;22;92847;-73
2022/02/11 15:04:22;;;;;;;6.22;1.50;;;7.40;67.90;;;;;;6153774;22;94809;-73
2022/02/11 15:06:54;;;;;;;8.52;1.60;;;7.40;69.00;;;;;;6153938;22;92403;-73
2022/02/11 15:09:22;;;;;;;5.45;1.60;;;7.40;69.90;;;;;;6153524;22;94797;-73
2022/02/11 15:11:49;;;;;;;8.93;1.80;;;7.40;70.10;;;;;;6153375;22;92808;-73
2022/02/11 15:14:21;;;;;;;6.65;1.77;;;7.30;69.70;;;;;;6153329;22;92470;-74
2022/02/11 15:16:49;;;;;;;8.75;1.80;;;7.30;70.10;;;;;;6155184;22;92345;-74
2022/02/11 15:19:16;;;;;;;7.50;2.05;;;7.40;69.70;;;;;;6155065;22;93269;-74
2022/02/11 15:21:45;;;;;;;6.85;1.48;;;7.50;69.20;;;;;;6155185;22;92700;-74
2022/02/11 15:24:14;;;;;;;9.23;2.10;;;7.50;69.40;;;;;;6155429;22;92478;-74
2022/02/11 15:26:41;;;;;;;7.20;1.90;;;7.70;69.90;;;;;;6153235;22;92531;-74
2022/02/11 15:29:08;;;;;;;3.95;1.80;;;7.70;67.60;;;;;;6151856;22;95608;-73
2022/02/11 15:31:38;;;;;;;7.72;1.63;;;7.80;68.80;;;;;;6128218;22;95316;-74
2022/02/11 15:34:06;;;;;;;9.00;1.70;;;7.80;66.80;;;;;;6155339;22;92298;-73
2022/02/11 15:36:33;;;;;;;7.63;1.42;;;7.80;67.00;;;;;;6153071;22;92492;-74
2022/02/11 15:39:00;;;;;;;8.70;1.83;;;7.80;66.20;;;;;;6153022;22;95783;-74
2022/02/11 15:41:27;;;;;;;4.30;1.50;;;7.80;66.30;;;;;;6154249;22;107485;-74
2022/02/11 15:43:54;;;;;;;11.55;1.88;;;7.70;66.90;;;;;;6153484;22;92336;-73
2022/02/11 15:46:23;;;;;;;5.35;1.77;;;7.70;67.80;;;;;;6154253;22;91747;-74
2022/02/11 15:48:50;;;;;;;7.05;2.60;;;7.60;67.90;;;;;;6155776;22;93344;-74
2022/02/11 15:51:18;;;;;;;11.65;1.52;;;7.60;68.70;;;;;;6154578;22;92955;-74
2022/02/11 15:53:45;;;;;;;8.15;1.80;;;7.60;68.50;;;;;;6152753;22;95023;-74
2022/02/11 15:56:13;;;;;;;12.82;2.47;;;7.50;68.70;;;;;;6152047;22;92337;-74
2022/02/11 15:58:40;;;;;;;4.43;1.83;;;7.50;69.60;;;;;;6154119;22;93234;-73
2022/02/11 16:01:08;;;;;;;9.55;1.65;;;7.50;69.30;;;;;;6129619;22;95453;-74
2022/02/11 16:03:35;;;;;;;9.57;2.08;;;7.50;69.10;;;;;;6156434;22;92378;-74
2022/02/11 16:06:02;;;;;;;10.48;1.88;;;7.50;68.60;;;;;;6155904;22;95881;-74
2022/02/11 16:08:29;;;;;;;8.45;1.83;;;7.40;68.30;;;;;;6155943;22;93198;-74
2022/02/11 16:10:56;;;;;;;6.22;1.95;;;7.40;68.50;;;;;;6156170;22;91788;-74
2022/02/11 16:13:25;;;;;;;8.32;2.20;;;7.40;68.70;;;;;;6156216;22;92311;-73
2022/02/11 16:15:52;;;;;;;12.70;3.35;;;7.30;69.00;;;;;;6156120;22;92764;-73
2022/02/11 16:18:23;;;;;;;8.25;1.80;;;7.30;69.00;;;;;;6154395;22;95749;-74
2022/02/11 16:20:52;;;;;;;11.00;2.17;;;7.20;69.50;;;;;;6155668;22;95118;-74
2022/02/11 16:23:21;;;;;;;8.45;1.65;;;7.20;69.60;;;;;;6156230;22;92485;-74
2022/02/11 16:25:48;;;;;;;8.73;2.00;;;7.20;69.90;;;;;;6154580;22;92489;-74
2022/02/11 16:28:17;;;;;;;8.32;1.70;;;7.10;70.20;;;;;;6154136;22;93058;-73
2022/02/11 16:30:45;;;;;;;9.32;2.08;;;7.10;71.00;;;;;;6153318;22;95541;-74
2022/02/11 16:33:13;;;;;;;6.95;2.00;;;7.00;71.00;;;;;;6156236;22;92412;-74
2022/02/11 16:35:42;;;;;;;10.25;1.52;;;6.90;71.40;;;;;;6129851;22;92338;-74
2022/02/11 16:38:11;;;;;;;8.88;2.65;;;6.90;70.80;;;;;;6129538;22;93255;-73
2022/02/11 16:40:38;;;;;;;8.45;1.83;;;6.80;70.70;;;;;;6155895;22;92925;-74
2022/02/11 16:43:05;;;;;;;6.25;1.90;;;6.70;70.70;;;;;;6152666;22;95308;-74
2022/02/11 16:45:33;;;;;;;7.82;1.48;;;6.60;71.20;;;;;;6154266;22;92520;-74
2022/02/11 16:48:04;;;;;;;7.00;1.25;;;6.60;70.80;;;;;;6155449;22;93308;-73
2022/02/11 16:50:31;;;;;;;8.73;2.00;;;6.50;71.00;;;;;;6154342;22;92929;-73
2022/02/11 16:52:59;;;;;;;6.35;1.45;;;6.40;70.50;;;;;;6154088;22;92352;-74
2022/02/11 16:55:26;;;;;;;5.65;1.50;;;6.40;70.30;;;;;;6154371;22;92445;-73
2022/02/11 16:57:53;;;;;;;5.57;1.33;;;6.30;70.20;;;;;;6153868;22;95861;-73
2022/02/11 17:00:20;;;;;;;11.88;1.73;;;6.30;70.70;;;;;;6129585;22;94025;-73